< < Back
Terminal Aerodrome Forecast


Current Version              Previous Versions:   1  2  3  4  5  6  7  8  9  

Terminal Aerodrome Forecast

023
FTUS42 KJAX 161700
TAFGNV
TAF
KGNV 161723Z 1618/1718 06013G22KT P6SM BKN030
     FM170100 03010KT P6SM BKN035
     FM171300 05015G23KT P6SM BKN020=

Latest METAR

237
SAUS70 KWBC 161900 RRB
MTRGNV
METAR KGNV 161853Z 07011G20KT 10SM BKN040 19/10 A3016 RMK AO2 SLP212
T01890100


USA.gov is the U.S. government's official web portal to all federal, state and local government web resources and services.